Terminal Aerodrome Forecast
Issued by NWS Cleveland, OH

Home | Current Version | Previous Version | Graphics & Text | Print | Product List | Glossary On
Versions: 1 2 3 4 5 6 7 8 9 10 11 12 13 14 15
425
FTUS41 KCLE 170540
TAFMFD
TAF
KMFD 170540Z 1706/1806 26013G20KT P6SM VCSH OVC015
     FM171000 26015G25KT 4SM -SHSN OVC015
     FM171800 27013G23KT P6SM OVC025
     FM180100 28008KT P6SM BKN035=

USA.gov is the U.S. government's official web portal to all federal, state and local government web resources and services.